sensor_id;sensor_type;location;lat;lon;timestamp;P1;durP1;ratioP1;P2;durP2;ratioP2
11344;SDS011;5727;42.600;23.028;2022-12-07T00:01:51;10.00;;;5.97;;
11344;SDS011;5727;42.600;23.028;2022-12-07T00:04:18;8.80;;;6.70;;
11344;SDS011;5727;42.600;23.028;2022-12-07T00:06:45;11.40;;;6.93;;
11344;SDS011;5727;42.600;23.028;2022-12-07T00:09:16;9.30;;;5.90;;
11344;SDS011;5727;42.600;23.028;2022-12-07T00:11:48;11.63;;;6.60;;
11344;SDS011;5727;42.600;23.028;2022-12-07T00:14:16;10.10;;;6.37;;
11344;SDS011;5727;42.600;23.028;2022-12-07T00:16:44;9.63;;;5.93;;
11344;SDS011;5727;42.600;23.028;2022-12-07T00:19:11;10.17;;;6.73;;
11344;SDS011;5727;42.600;23.028;2022-12-07T00:21:39;11.63;;;7.33;;
11344;SDS011;5727;42.600;23.028;2022-12-07T00:24:06;12.00;;;7.63;;
11344;SDS011;5727;42.600;23.028;2022-12-07T00:26:33;13.73;;;8.50;;
11344;SDS011;5727;42.600;23.028;2022-12-07T00:29:04;19.43;;;9.73;;
11344;SDS011;5727;42.600;23.028;2022-12-07T00:31:32;17.17;;;11.30;;
11344;SDS011;5727;42.600;23.028;2022-12-07T00:34:03;14.07;;;8.83;;
11344;SDS011;5727;42.600;23.028;2022-12-07T00:36:30;10.30;;;6.93;;
11344;SDS011;5727;42.600;23.028;2022-12-07T00:38:57;10.03;;;6.83;;
11344;SDS011;5727;42.600;23.028;2022-12-07T00:41:26;9.90;;;6.40;;
11344;SDS011;5727;42.600;23.028;2022-12-07T00:43:53;9.80;;;6.10;;
11344;SDS011;5727;42.600;23.028;2022-12-07T00:46:22;9.40;;;6.10;;
11344;SDS011;5727;42.600;23.028;2022-12-07T00:48:50;7.33;;;5.73;;
11344;SDS011;5727;42.600;23.028;2022-12-07T00:51:18;11.20;;;6.40;;
11344;SDS011;5727;42.600;23.028;2022-12-07T00:53:47;11.37;;;6.53;;
11344;SDS011;5727;42.600;23.028;2022-12-07T00:56:15;9.23;;;5.93;;
11344;SDS011;5727;42.600;23.028;2022-12-07T00:58:43;8.77;;;6.07;;
11344;SDS011;5727;42.600;23.028;2022-12-07T01:01:15;9.40;;;6.20;;
11344;SDS011;5727;42.600;23.028;2022-12-07T01:03:43;10.53;;;5.73;;
11344;SDS011;5727;42.600;23.028;2022-12-07T01:06:10;8.30;;;5.33;;
11344;SDS011;5727;42.600;23.028;2022-12-07T01:08:41;10.43;;;6.23;;
11344;SDS011;5727;42.600;23.028;2022-12-07T01:11:09;11.67;;;6.13;;
11344;SDS011;5727;42.600;23.028;2022-12-07T01:13:38;11.80;;;6.43;;
11344;SDS011;5727;42.600;23.028;2022-12-07T01:16:05;7.63;;;5.67;;
11344;SDS011;5727;42.600;23.028;2022-12-07T01:18:34;9.70;;;5.80;;
11344;SDS011;5727;42.600;23.028;2022-12-07T01:21:04;8.70;;;6.50;;
11344;SDS011;5727;42.600;23.028;2022-12-07T01:23:32;6.43;;;5.07;;
11344;SDS011;5727;42.600;23.028;2022-12-07T01:26:00;9.23;;;5.67;;
11344;SDS011;5727;42.600;23.028;2022-12-07T01:28:29;8.93;;;6.20;;
11344;SDS011;5727;42.600;23.028;2022-12-07T01:30:56;10.80;;;6.40;;
11344;SDS011;5727;42.600;23.028;2022-12-07T01:33:27;11.17;;;7.40;;
11344;SDS011;5727;42.600;23.028;2022-12-07T01:36:00;11.50;;;8.17;;
11344;SDS011;5727;42.600;23.028;2022-12-07T01:38:29;9.30;;;7.50;;
11344;SDS011;5727;42.600;23.028;2022-12-07T01:40:56;9.37;;;7.17;;
11344;SDS011;5727;42.600;23.028;2022-12-07T01:43:24;10.53;;;7.47;;
11344;SDS011;5727;42.600;23.028;2022-12-07T01:45:53;8.37;;;5.93;;
11344;SDS011;5727;42.600;23.028;2022-12-07T01:48:21;8.30;;;6.30;;
11344;SDS011;5727;42.600;23.028;2022-12-07T01:50:51;7.77;;;5.70;;
11344;SDS011;5727;42.600;23.028;2022-12-07T01:53:24;11.80;;;6.47;;
11344;SDS011;5727;42.600;23.028;2022-12-07T01:55:52;7.77;;;5.50;;
11344;SDS011;5727;42.600;23.028;2022-12-07T01:58:20;8.07;;;5.53;;
11344;SDS011;5727;42.600;23.028;2022-12-07T02:00:47;9.27;;;5.57;;
11344;SDS011;5727;42.600;23.028;2022-12-07T02:03:15;11.00;;;6.80;;
11344;SDS011;5727;42.600;23.028;2022-12-07T02:05:46;12.03;;;7.10;;
11344;SDS011;5727;42.600;23.028;2022-12-07T02:08:14;12.73;;;6.90;;
11344;SDS011;5727;42.600;23.028;2022-12-07T02:10:42;12.07;;;6.50;;
11344;SDS011;5727;42.600;23.028;2022-12-07T02:13:10;9.40;;;6.43;;
11344;SDS011;5727;42.600;23.028;2022-12-07T02:15:45;9.93;;;6.47;;
11344;SDS011;5727;42.600;23.028;2022-12-07T02:18:25;10.77;;;6.60;;
11344;SDS011;5727;42.600;23.028;2022-12-07T02:21:01;9.17;;;6.23;;
11344;SDS011;5727;42.600;23.028;2022-12-07T02:23:42;14.50;;;6.80;;
11344;SDS011;5727;42.600;23.028;2022-12-07T02:29:35;9.73;;;6.00;;
11344;SDS011;5727;42.600;23.028;2022-12-07T02:32:07;8.97;;;6.10;;
11344;SDS011;5727;42.600;23.028;2022-12-07T02:34:39;9.80;;;6.33;;
11344;SDS011;5727;42.600;23.028;2022-12-07T02:37:16;12.80;;;6.47;;
11344;SDS011;5727;42.600;23.028;2022-12-07T02:39:48;12.07;;;7.17;;
11344;SDS011;5727;42.600;23.028;2022-12-07T02:42:22;14.60;;;6.73;;
11344;SDS011;5727;42.600;23.028;2022-12-07T02:44:55;10.17;;;6.10;;
11344;SDS011;5727;42.600;23.028;2022-12-07T02:47:22;8.80;;;5.80;;
11344;SDS011;5727;42.600;23.028;2022-12-07T02:49:51;7.33;;;5.60;;
11344;SDS011;5727;42.600;23.028;2022-12-07T02:52:18;9.23;;;5.83;;
11344;SDS011;5727;42.600;23.028;2022-12-07T02:54:45;6.60;;;5.60;;
11344;SDS011;5727;42.600;23.028;2022-12-07T02:57:18;8.13;;;5.70;;
11344;SDS011;5727;42.600;23.028;2022-12-07T03:00:00;11.27;;;6.33;;
11344;SDS011;5727;42.600;23.028;2022-12-07T03:02:33;10.23;;;5.00;;
11344;SDS011;5727;42.600;23.028;2022-12-07T03:05:09;9.77;;;6.47;;
11344;SDS011;5727;42.600;23.028;2022-12-07T03:07:48;10.00;;;5.70;;
11344;SDS011;5727;42.600;23.028;2022-12-07T03:10:23;8.80;;;5.17;;
11344;SDS011;5727;42.600;23.028;2022-12-07T03:12:57;8.17;;;5.63;;
11344;SDS011;5727;42.600;23.028;2022-12-07T03:15:31;6.43;;;5.00;;
11344;SDS011;5727;42.600;23.028;2022-12-07T03:18:02;6.20;;;5.60;;
11344;SDS011;5727;42.600;23.028;2022-12-07T03:20:31;6.07;;;5.57;;
11344;SDS011;5727;42.600;23.028;2022-12-07T03:23:03;8.63;;;6.40;;
11344;SDS011;5727;42.600;23.028;2022-12-07T03:25:32;7.87;;;5.20;;
11344;SDS011;5727;42.600;23.028;2022-12-07T03:28:02;7.57;;;5.00;;
11344;SDS011;5727;42.600;23.028;2022-12-07T03:30:36;8.80;;;5.07;;
11344;SDS011;5727;42.600;23.028;2022-12-07T03:33:09;5.53;;;4.97;;
11344;SDS011;5727;42.600;23.028;2022-12-07T03:35:39;9.07;;;5.37;;
11344;SDS011;5727;42.600;23.028;2022-12-07T03:38:13;5.90;;;5.37;;
11344;SDS011;5727;42.600;23.028;2022-12-07T03:40:44;8.23;;;6.07;;
11344;SDS011;5727;42.600;23.028;2022-12-07T03:43:16;6.73;;;5.53;;
11344;SDS011;5727;42.600;23.028;2022-12-07T03:45:47;7.40;;;5.13;;
11344;SDS011;5727;42.600;23.028;2022-12-07T03:48:25;8.63;;;6.07;;
11344;SDS011;5727;42.600;23.028;2022-12-07T03:51:00;10.67;;;7.53;;
11344;SDS011;5727;42.600;23.028;2022-12-07T03:53:34;11.50;;;7.90;;
11344;SDS011;5727;42.600;23.028;2022-12-07T03:56:06;12.83;;;7.90;;
11344;SDS011;5727;42.600;23.028;2022-12-07T03:58:34;12.77;;;8.13;;
11344;SDS011;5727;42.600;23.028;2022-12-07T04:01:03;16.87;;;8.60;;
11344;SDS011;5727;42.600;23.028;2022-12-07T04:03:30;13.23;;;8.07;;
11344;SDS011;5727;42.600;23.028;2022-12-07T04:05:57;12.30;;;8.90;;
11344;SDS011;5727;42.600;23.028;2022-12-07T04:08:24;14.10;;;8.53;;
11344;SDS011;5727;42.600;23.028;2022-12-07T04:10:51;12.33;;;8.03;;
11344;SDS011;5727;42.600;23.028;2022-12-07T04:13:18;10.97;;;7.80;;
11344;SDS011;5727;42.600;23.028;2022-12-07T04:15:45;15.47;;;8.07;;
11344;SDS011;5727;42.600;23.028;2022-12-07T04:18:13;8.23;;;6.23;;
11344;SDS011;5727;42.600;23.028;2022-12-07T04:20:39;10.33;;;5.53;;
11344;SDS011;5727;42.600;23.028;2022-12-07T04:23:06;8.63;;;6.00;;
11344;SDS011;5727;42.600;23.028;2022-12-07T04:25:33;9.47;;;6.83;;
11344;SDS011;5727;42.600;23.028;2022-12-07T04:27:59;9.57;;;6.13;;
11344;SDS011;5727;42.600;23.028;2022-12-07T04:30:26;11.63;;;7.37;;
11344;SDS011;5727;42.600;23.028;2022-12-07T04:32:53;15.60;;;8.80;;
11344;SDS011;5727;42.600;23.028;2022-12-07T04:35:21;8.53;;;7.00;;
11344;SDS011;5727;42.600;23.028;2022-12-07T04:37:48;14.73;;;8.57;;
11344;SDS011;5727;42.600;23.028;2022-12-07T04:40:15;9.40;;;7.17;;
11344;SDS011;5727;42.600;23.028;2022-12-07T04:42:41;20.73;;;11.77;;
11344;SDS011;5727;42.600;23.028;2022-12-07T04:45:08;15.63;;;9.53;;
11344;SDS011;5727;42.600;23.028;2022-12-07T04:47:35;13.70;;;9.50;;
11344;SDS011;5727;42.600;23.028;2022-12-07T04:50:02;13.80;;;7.83;;
11344;SDS011;5727;42.600;23.028;2022-12-07T04:52:31;14.93;;;8.80;;
11344;SDS011;5727;42.600;23.028;2022-12-07T04:54:58;11.33;;;7.40;;
11344;SDS011;5727;42.600;23.028;2022-12-07T04:57:25;10.63;;;8.00;;
11344;SDS011;5727;42.600;23.028;2022-12-07T04:59:52;14.53;;;9.67;;
11344;SDS011;5727;42.600;23.028;2022-12-07T05:02:18;6.20;;;5.60;;
11344;SDS011;5727;42.600;23.028;2022-12-07T05:04:45;9.20;;;7.00;;
11344;SDS011;5727;42.600;23.028;2022-12-07T05:07:12;14.27;;;7.97;;
11344;SDS011;5727;42.600;23.028;2022-12-07T05:09:40;15.73;;;8.70;;
11344;SDS011;5727;42.600;23.028;2022-12-07T05:12:06;13.87;;;8.00;;
11344;SDS011;5727;42.600;23.028;2022-12-07T05:14:33;29.50;;;9.50;;
11344;SDS011;5727;42.600;23.028;2022-12-07T05:17:00;10.50;;;7.73;;
11344;SDS011;5727;42.600;23.028;2022-12-07T05:19:26;15.23;;;8.73;;
11344;SDS011;5727;42.600;23.028;2022-12-07T05:21:53;18.47;;;9.23;;
11344;SDS011;5727;42.600;23.028;2022-12-07T05:24:20;15.80;;;9.27;;
11344;SDS011;5727;42.600;23.028;2022-12-07T05:26:48;18.13;;;8.87;;
11344;SDS011;5727;42.600;23.028;2022-12-07T05:29:16;14.80;;;9.17;;
11344;SDS011;5727;42.600;23.028;2022-12-07T05:31:44;13.10;;;8.70;;
11344;SDS011;5727;42.600;23.028;2022-12-07T05:34:11;19.30;;;9.33;;
11344;SDS011;5727;42.600;23.028;2022-12-07T05:36:38;17.30;;;9.33;;
11344;SDS011;5727;42.600;23.028;2022-12-07T05:39:05;18.37;;;10.50;;
11344;SDS011;5727;42.600;23.028;2022-12-07T05:41:32;20.30;;;11.13;;
11344;SDS011;5727;42.600;23.028;2022-12-07T05:44:18;15.40;;;10.63;;
11344;SDS011;5727;42.600;23.028;2022-12-07T05:46:44;13.53;;;11.30;;
11344;SDS011;5727;42.600;23.028;2022-12-07T05:49:11;21.67;;;12.30;;
11344;SDS011;5727;42.600;23.028;2022-12-07T05:51:38;19.27;;;11.67;;
11344;SDS011;5727;42.600;23.028;2022-12-07T05:54:05;18.60;;;11.40;;
11344;SDS011;5727;42.600;23.028;2022-12-07T05:56:31;10.20;;;7.70;;
11344;SDS011;5727;42.600;23.028;2022-12-07T05:58:58;12.40;;;8.53;;
11344;SDS011;5727;42.600;23.028;2022-12-07T06:01:44;13.23;;;9.00;;
11344;SDS011;5727;42.600;23.028;2022-12-07T06:04:10;10.60;;;7.93;;
11344;SDS011;5727;42.600;23.028;2022-12-07T06:06:37;9.73;;;7.03;;
11344;SDS011;5727;42.600;23.028;2022-12-07T06:09:04;12.77;;;7.53;;
11344;SDS011;5727;42.600;23.028;2022-12-07T06:11:31;10.07;;;7.63;;
11344;SDS011;5727;42.600;23.028;2022-12-07T06:14:15;11.93;;;7.67;;
11344;SDS011;5727;42.600;23.028;2022-12-07T06:16:43;9.47;;;8.00;;
11344;SDS011;5727;42.600;23.028;2022-12-07T06:19:10;9.07;;;7.20;;
11344;SDS011;5727;42.600;23.028;2022-12-07T06:21:37;10.83;;;7.87;;
11344;SDS011;5727;42.600;23.028;2022-12-07T06:24:04;12.20;;;8.17;;
11344;SDS011;5727;42.600;23.028;2022-12-07T06:26:31;12.43;;;8.83;;
11344;SDS011;5727;42.600;23.028;2022-12-07T06:28:58;15.07;;;8.70;;
11344;SDS011;5727;42.600;23.028;2022-12-07T06:31:25;12.60;;;8.33;;
11344;SDS011;5727;42.600;23.028;2022-12-07T06:33:56;13.10;;;8.83;;
11344;SDS011;5727;42.600;23.028;2022-12-07T06:36:23;10.87;;;9.27;;
11344;SDS011;5727;42.600;23.028;2022-12-07T06:38:50;16.77;;;9.03;;
11344;SDS011;5727;42.600;23.028;2022-12-07T06:41:17;13.20;;;9.30;;
11344;SDS011;5727;42.600;23.028;2022-12-07T06:43:43;12.70;;;9.03;;
11344;SDS011;5727;42.600;23.028;2022-12-07T06:46:10;12.10;;;9.60;;
11344;SDS011;5727;42.600;23.028;2022-12-07T06:48:37;12.40;;;9.17;;
11344;SDS011;5727;42.600;23.028;2022-12-07T06:51:05;13.77;;;9.87;;
11344;SDS011;5727;42.600;23.028;2022-12-07T06:53:32;12.83;;;9.83;;
11344;SDS011;5727;42.600;23.028;2022-12-07T06:55:58;16.77;;;10.37;;
11344;SDS011;5727;42.600;23.028;2022-12-07T06:58:25;14.67;;;9.97;;
11344;SDS011;5727;42.600;23.028;2022-12-07T07:00:52;11.23;;;9.60;;
11344;SDS011;5727;42.600;23.028;2022-12-07T07:03:19;14.90;;;9.00;;
11344;SDS011;5727;42.600;23.028;2022-12-07T07:05:46;13.03;;;9.50;;
11344;SDS011;5727;42.600;23.028;2022-12-07T07:08:14;17.17;;;11.47;;
11344;SDS011;5727;42.600;23.028;2022-12-07T07:10:41;13.70;;;10.60;;
11344;SDS011;5727;42.600;23.028;2022-12-07T07:13:07;14.20;;;10.40;;
11344;SDS011;5727;42.600;23.028;2022-12-07T07:15:34;14.97;;;10.73;;
11344;SDS011;5727;42.600;23.028;2022-12-07T07:18:04;15.70;;;11.30;;
11344;SDS011;5727;42.600;23.028;2022-12-07T07:20:31;21.73;;;13.37;;
11344;SDS011;5727;42.600;23.028;2022-12-07T07:22:57;31.20;;;18.93;;
11344;SDS011;5727;42.600;23.028;2022-12-07T07:25:25;24.93;;;17.03;;
11344;SDS011;5727;42.600;23.028;2022-12-07T07:27:52;30.83;;;20.70;;
11344;SDS011;5727;42.600;23.028;2022-12-07T07:30:19;30.53;;;20.60;;
11344;SDS011;5727;42.600;23.028;2022-12-07T07:32:46;33.27;;;20.97;;
11344;SDS011;5727;42.600;23.028;2022-12-07T07:35:12;31.90;;;21.00;;
11344;SDS011;5727;42.600;23.028;2022-12-07T07:37:39;32.80;;;22.73;;
11344;SDS011;5727;42.600;23.028;2022-12-07T07:40:06;32.40;;;21.57;;
11344;SDS011;5727;42.600;23.028;2022-12-07T07:42:35;23.70;;;18.17;;
11344;SDS011;5727;42.600;23.028;2022-12-07T07:45:05;30.57;;;20.70;;
11344;SDS011;5727;42.600;23.028;2022-12-07T07:47:33;23.13;;;13.87;;
11344;SDS011;5727;42.600;23.028;2022-12-07T07:50:00;21.20;;;13.77;;
11344;SDS011;5727;42.600;23.028;2022-12-07T07:52:26;30.73;;;24.10;;
11344;SDS011;5727;42.600;23.028;2022-12-07T07:54:53;24.13;;;14.13;;
11344;SDS011;5727;42.600;23.028;2022-12-07T07:57:20;21.93;;;14.20;;
11344;SDS011;5727;42.600;23.028;2022-12-07T07:59:48;20.80;;;13.60;;
11344;SDS011;5727;42.600;23.028;2022-12-07T08:02:16;21.13;;;13.73;;
11344;SDS011;5727;42.600;23.028;2022-12-07T08:04:44;20.63;;;11.03;;
11344;SDS011;5727;42.600;23.028;2022-12-07T08:07:11;13.90;;;10.87;;
11344;SDS011;5727;42.600;23.028;2022-12-07T08:09:39;16.57;;;10.67;;
11344;SDS011;5727;42.600;23.028;2022-12-07T08:12:06;18.17;;;10.70;;
11344;SDS011;5727;42.600;23.028;2022-12-07T08:14:33;20.47;;;11.37;;
11344;SDS011;5727;42.600;23.028;2022-12-07T08:17:02;25.43;;;14.23;;
11344;SDS011;5727;42.600;23.028;2022-12-07T08:19:29;24.57;;;13.50;;
11344;SDS011;5727;42.600;23.028;2022-12-07T08:21:55;15.43;;;8.93;;
11344;SDS011;5727;42.600;23.028;2022-12-07T08:24:22;9.07;;;7.50;;
11344;SDS011;5727;42.600;23.028;2022-12-07T08:26:50;18.10;;;11.27;;
11344;SDS011;5727;42.600;23.028;2022-12-07T08:29:17;13.47;;;8.40;;
11344;SDS011;5727;42.600;23.028;2022-12-07T08:31:44;17.83;;;9.23;;
11344;SDS011;5727;42.600;23.028;2022-12-07T08:34:12;9.50;;;7.27;;
11344;SDS011;5727;42.600;23.028;2022-12-07T08:36:40;10.47;;;6.70;;
11344;SDS011;5727;42.600;23.028;2022-12-07T08:39:06;10.63;;;6.30;;
11344;SDS011;5727;42.600;23.028;2022-12-07T08:41:33;13.33;;;7.27;;
11344;SDS011;5727;42.600;23.028;2022-12-07T08:44:00;7.43;;;6.37;;
11344;SDS011;5727;42.600;23.028;2022-12-07T08:46:28;11.33;;;7.20;;
11344;SDS011;5727;42.600;23.028;2022-12-07T08:49:02;11.30;;;7.87;;
11344;SDS011;5727;42.600;23.028;2022-12-07T08:51:34;10.17;;;6.07;;
11344;SDS011;5727;42.600;23.028;2022-12-07T08:54:02;7.60;;;5.63;;
11344;SDS011;5727;42.600;23.028;2022-12-07T08:56:31;8.17;;;5.47;;
11344;SDS011;5727;42.600;23.028;2022-12-07T08:58:58;7.63;;;5.63;;
11344;SDS011;5727;42.600;23.028;2022-12-07T09:01:24;14.13;;;7.10;;
11344;SDS011;5727;42.600;23.028;2022-12-07T09:03:52;10.33;;;5.60;;
11344;SDS011;5727;42.600;23.028;2022-12-07T09:06:18;9.03;;;6.50;;
11344;SDS011;5727;42.600;23.028;2022-12-07T09:08:47;9.70;;;6.60;;
11344;SDS011;5727;42.600;23.028;2022-12-07T09:11:18;7.00;;;6.30;;
11344;SDS011;5727;42.600;23.028;2022-12-07T09:13:45;10.57;;;7.87;;
11344;SDS011;5727;42.600;23.028;2022-12-07T09:16:12;8.07;;;6.63;;
11344;SDS011;5727;42.600;23.028;2022-12-07T09:18:38;12.10;;;6.77;;
11344;SDS011;5727;42.600;23.028;2022-12-07T09:21:05;14.80;;;8.50;;
11344;SDS011;5727;42.600;23.028;2022-12-07T09:23:32;11.03;;;7.93;;
11344;SDS011;5727;42.600;23.028;2022-12-07T09:26:00;9.57;;;6.40;;
11344;SDS011;5727;42.600;23.028;2022-12-07T09:28:27;7.17;;;6.47;;
11344;SDS011;5727;42.600;23.028;2022-12-07T09:30:54;10.40;;;6.73;;
11344;SDS011;5727;42.600;23.028;2022-12-07T09:33:21;8.33;;;5.60;;
11344;SDS011;5727;42.600;23.028;2022-12-07T09:35:48;8.27;;;6.70;;
11344;SDS011;5727;42.600;23.028;2022-12-07T09:38:17;8.37;;;5.53;;
11344;SDS011;5727;42.600;23.028;2022-12-07T09:40:45;8.57;;;6.43;;
11344;SDS011;5727;42.600;23.028;2022-12-07T09:43:14;6.60;;;5.60;;
11344;SDS011;5727;42.600;23.028;2022-12-07T09:45:43;6.73;;;5.80;;
11344;SDS011;5727;42.600;23.028;2022-12-07T09:48:14;7.40;;;5.77;;
11344;SDS011;5727;42.600;23.028;2022-12-07T09:50:45;7.60;;;5.10;;
11344;SDS011;5727;42.600;23.028;2022-12-07T09:53:13;8.07;;;5.57;;
11344;SDS011;5727;42.600;23.028;2022-12-07T09:55:44;5.43;;;4.83;;
11344;SDS011;5727;42.600;23.028;2022-12-07T09:58:12;7.07;;;4.97;;
11344;SDS011;5727;42.600;23.028;2022-12-07T10:00:48;7.00;;;5.33;;
11344;SDS011;5727;42.600;23.028;2022-12-07T10:03:15;10.73;;;5.77;;
11344;SDS011;5727;42.600;23.028;2022-12-07T10:05:43;8.53;;;5.13;;
11344;SDS011;5727;42.600;23.028;2022-12-07T10:08:11;7.80;;;5.30;;
11344;SDS011;5727;42.600;23.028;2022-12-07T10:10:40;9.20;;;6.23;;
11344;SDS011;5727;42.600;23.028;2022-12-07T10:13:08;14.60;;;7.90;;
11344;SDS011;5727;42.600;23.028;2022-12-07T10:15:45;8.80;;;4.77;;
11344;SDS011;5727;42.600;23.028;2022-12-07T10:18:21;9.73;;;5.77;;
11344;SDS011;5727;42.600;23.028;2022-12-07T10:21:00;9.20;;;4.90;;
11344;SDS011;5727;42.600;23.028;2022-12-07T10:23:39;7.70;;;5.70;;
11344;SDS011;5727;42.600;23.028;2022-12-07T10:26:20;8.17;;;5.43;;
11344;SDS011;5727;42.600;23.028;2022-12-07T10:28:53;6.83;;;4.73;;
11344;SDS011;5727;42.600;23.028;2022-12-07T10:31:23;5.30;;;4.37;;
11344;SDS011;5727;42.600;23.028;2022-12-07T10:33:51;8.03;;;5.07;;
11344;SDS011;5727;42.600;23.028;2022-12-07T10:36:20;9.40;;;4.73;;
11344;SDS011;5727;42.600;23.028;2022-12-07T10:38:51;8.20;;;5.10;;
11344;SDS011;5727;42.600;23.028;2022-12-07T10:41:19;6.23;;;5.07;;
11344;SDS011;5727;42.600;23.028;2022-12-07T10:43:47;6.63;;;4.67;;
11344;SDS011;5727;42.600;23.028;2022-12-07T10:46:37;6.47;;;4.87;;
11344;SDS011;5727;42.600;23.028;2022-12-07T10:52:42;8.53;;;5.43;;
11344;SDS011;5727;42.600;23.028;2022-12-07T10:55:23;9.97;;;6.07;;
11344;SDS011;5727;42.600;23.028;2022-12-07T10:58:04;8.47;;;4.53;;
11344;SDS011;5727;42.600;23.028;2022-12-07T11:00:49;5.87;;;4.33;;
11344;SDS011;5727;42.600;23.028;2022-12-07T11:03:29;6.60;;;4.90;;
11344;SDS011;5727;42.600;23.028;2022-12-07T11:06:10;7.43;;;3.87;;
11344;SDS011;5727;42.600;23.028;2022-12-07T11:08:52;6.83;;;4.10;;
11344;SDS011;5727;42.600;23.028;2022-12-07T11:11:27;9.97;;;4.73;;
11344;SDS011;5727;42.600;23.028;2022-12-07T11:14:01;5.30;;;3.87;;
11344;SDS011;5727;42.600;23.028;2022-12-07T11:16:37;4.73;;;3.70;;
11344;SDS011;5727;42.600;23.028;2022-12-07T11:19:19;8.17;;;4.60;;
11344;SDS011;5727;42.600;23.028;2022-12-07T11:22:04;7.97;;;4.43;;
11344;SDS011;5727;42.600;23.028;2022-12-07T11:24:37;6.33;;;3.90;;
11344;SDS011;5727;42.600;23.028;2022-12-07T11:27:14;4.77;;;3.47;;
11344;SDS011;5727;42.600;23.028;2022-12-07T11:29:54;5.73;;;4.37;;
11344;SDS011;5727;42.600;23.028;2022-12-07T11:32:35;7.83;;;4.00;;
11344;SDS011;5727;42.600;23.028;2022-12-07T11:35:19;5.97;;;4.83;;
11344;SDS011;5727;42.600;23.028;2022-12-07T11:37:54;7.17;;;4.50;;
11344;SDS011;5727;42.600;23.028;2022-12-07T11:40:26;7.53;;;4.07;;
11344;SDS011;5727;42.600;23.028;2022-12-07T11:42:57;8.43;;;4.97;;
11344;SDS011;5727;42.600;23.028;2022-12-07T11:45:26;7.77;;;4.03;;
11344;SDS011;5727;42.600;23.028;2022-12-07T11:47:56;8.10;;;4.27;;
11344;SDS011;5727;42.600;23.028;2022-12-07T11:50:30;5.63;;;4.17;;
11344;SDS011;5727;42.600;23.028;2022-12-07T11:53:03;4.47;;;3.40;;
11344;SDS011;5727;42.600;23.028;2022-12-07T11:55:39;5.73;;;3.90;;
11344;SDS011;5727;42.600;23.028;2022-12-07T11:58:18;6.83;;;4.30;;
11344;SDS011;5727;42.600;23.028;2022-12-07T12:00:55;6.10;;;3.93;;
11344;SDS011;5727;42.600;23.028;2022-12-07T12:03:33;6.03;;;3.77;;
11344;SDS011;5727;42.600;23.028;2022-12-07T12:06:03;4.97;;;3.80;;
11344;SDS011;5727;42.600;23.028;2022-12-07T12:08:31;8.07;;;4.50;;
11344;SDS011;5727;42.600;23.028;2022-12-07T12:11:03;6.50;;;3.70;;
11344;SDS011;5727;42.600;23.028;2022-12-07T12:13:54;5.90;;;4.27;;
11344;SDS011;5727;42.600;23.028;2022-12-07T12:16:39;4.20;;;3.80;;
11344;SDS011;5727;42.600;23.028;2022-12-07T12:19:32;7.63;;;4.03;;
11344;SDS011;5727;42.600;23.028;2022-12-07T12:22:04;4.57;;;4.10;;
11344;SDS011;5727;42.600;23.028;2022-12-07T12:24:38;5.17;;;3.90;;
11344;SDS011;5727;42.600;23.028;2022-12-07T12:27:08;5.40;;;3.93;;
11344;SDS011;5727;42.600;23.028;2022-12-07T12:29:41;6.50;;;3.67;;
11344;SDS011;5727;42.600;23.028;2022-12-07T12:32:17;5.73;;;3.30;;
11344;SDS011;5727;42.600;23.028;2022-12-07T12:35:00;7.33;;;4.27;;
11344;SDS011;5727;42.600;23.028;2022-12-07T12:37:40;6.70;;;4.93;;
11344;SDS011;5727;42.600;23.028;2022-12-07T12:55:22;4.10;;;3.80;;
11344;SDS011;5727;42.600;23.028;2022-12-07T13:04:26;7.03;;;4.37;;
11344;SDS011;5727;42.600;23.028;2022-12-07T13:06:56;6.50;;;4.20;;
11344;SDS011;5727;42.600;23.028;2022-12-07T13:09:24;6.23;;;4.63;;
11344;SDS011;5727;42.600;23.028;2022-12-07T13:11:59;5.40;;;3.90;;
11344;SDS011;5727;42.600;23.028;2022-12-07T13:14:43;4.27;;;3.87;;
11344;SDS011;5727;42.600;23.028;2022-12-07T13:23:21;4.67;;;3.83;;
11344;SDS011;5727;42.600;23.028;2022-12-07T13:25:54;4.80;;;3.77;;
11344;SDS011;5727;42.600;23.028;2022-12-07T13:28:31;5.73;;;3.77;;
11344;SDS011;5727;42.600;23.028;2022-12-07T13:31:09;3.73;;;3.10;;
11344;SDS011;5727;42.600;23.028;2022-12-07T13:33:42;4.03;;;3.47;;
11344;SDS011;5727;42.600;23.028;2022-12-07T13:36:12;8.20;;;3.37;;
11344;SDS011;5727;42.600;23.028;2022-12-07T13:38:49;5.47;;;3.60;;
11344;SDS011;5727;42.600;23.028;2022-12-07T13:41:18;7.13;;;3.33;;
11344;SDS011;5727;42.600;23.028;2022-12-07T13:43:49;5.27;;;3.40;;
11344;SDS011;5727;42.600;23.028;2022-12-07T13:46:21;6.53;;;4.30;;
11344;SDS011;5727;42.600;23.028;2022-12-07T13:48:53;7.07;;;4.00;;
11344;SDS011;5727;42.600;23.028;2022-12-07T13:51:22;4.90;;;3.87;;
11344;SDS011;5727;42.600;23.028;2022-12-07T13:53:51;7.80;;;3.80;;
11344;SDS011;5727;42.600;23.028;2022-12-07T13:56:20;4.20;;;3.80;;
11344;SDS011;5727;42.600;23.028;2022-12-07T13:58:48;8.47;;;3.87;;
11344;SDS011;5727;42.600;23.028;2022-12-07T14:01:16;7.80;;;4.37;;
11344;SDS011;5727;42.600;23.028;2022-12-07T14:03:43;6.53;;;5.80;;
11344;SDS011;5727;42.600;23.028;2022-12-07T14:06:21;7.27;;;3.97;;
11344;SDS011;5727;42.600;23.028;2022-12-07T14:09:05;6.33;;;4.60;;
11344;SDS011;5727;42.600;23.028;2022-12-07T14:11:33;8.20;;;6.67;;
11344;SDS011;5727;42.600;23.028;2022-12-07T14:14:02;7.97;;;5.67;;
11344;SDS011;5727;42.600;23.028;2022-12-07T14:16:32;11.30;;;6.73;;
11344;SDS011;5727;42.600;23.028;2022-12-07T14:19:01;11.17;;;6.30;;
11344;SDS011;5727;42.600;23.028;2022-12-07T14:21:30;13.43;;;6.90;;
11344;SDS011;5727;42.600;23.028;2022-12-07T14:26:44;16.80;;;8.00;;
11344;SDS011;5727;42.600;23.028;2022-12-07T14:32:21;16.50;;;9.20;;
11344;SDS011;5727;42.600;23.028;2022-12-07T14:34:54;18.33;;;10.43;;
11344;SDS011;5727;42.600;23.028;2022-12-07T14:37:22;19.10;;;10.73;;
11344;SDS011;5727;42.600;23.028;2022-12-07T14:39:49;22.80;;;12.37;;
11344;SDS011;5727;42.600;23.028;2022-12-07T14:42:16;20.50;;;11.73;;
11344;SDS011;5727;42.600;23.028;2022-12-07T14:44:43;17.53;;;10.27;;
11344;SDS011;5727;42.600;23.028;2022-12-07T14:47:11;12.57;;;9.07;;
11344;SDS011;5727;42.600;23.028;2022-12-07T14:49:40;19.07;;;10.07;;
11344;SDS011;5727;42.600;23.028;2022-12-07T14:52:08;21.87;;;11.53;;
11344;SDS011;5727;42.600;23.028;2022-12-07T14:54:39;17.73;;;12.43;;
11344;SDS011;5727;42.600;23.028;2022-12-07T14:57:08;21.90;;;13.30;;
11344;SDS011;5727;42.600;23.028;2022-12-07T14:59:35;23.13;;;13.30;;
11344;SDS011;5727;42.600;23.028;2022-12-07T15:02:01;20.43;;;11.97;;
11344;SDS011;5727;42.600;23.028;2022-12-07T15:04:28;22.93;;;11.90;;
11344;SDS011;5727;42.600;23.028;2022-12-07T15:06:57;18.33;;;12.07;;
11344;SDS011;5727;42.600;23.028;2022-12-07T15:09:24;21.40;;;13.47;;
11344;SDS011;5727;42.600;23.028;2022-12-07T15:11:51;22.57;;;13.70;;
11344;SDS011;5727;42.600;23.028;2022-12-07T15:14:18;27.70;;;14.03;;
11344;SDS011;5727;42.600;23.028;2022-12-07T15:16:44;28.30;;;16.63;;
11344;SDS011;5727;42.600;23.028;2022-12-07T15:19:12;49.63;;;26.93;;
11344;SDS011;5727;42.600;23.028;2022-12-07T15:21:43;48.50;;;27.60;;
11344;SDS011;5727;42.600;23.028;2022-12-07T15:24:11;52.60;;;33.37;;
11344;SDS011;5727;42.600;23.028;2022-12-07T15:26:39;60.73;;;37.63;;
11344;SDS011;5727;42.600;23.028;2022-12-07T15:29:06;56.53;;;39.07;;
11344;SDS011;5727;42.600;23.028;2022-12-07T15:31:34;41.13;;;28.77;;
11344;SDS011;5727;42.600;23.028;2022-12-07T15:34:01;41.33;;;27.33;;
11344;SDS011;5727;42.600;23.028;2022-12-07T15:36:28;38.23;;;26.97;;